createdAt,value
2023-04-17T00:01:32.537Z,100579.85
2023-04-17T00:05:41.103Z,100581.63
2023-04-17T00:09:51.386Z,100579.14
2023-04-17T00:14:00.737Z,100577.13
2023-04-17T00:18:09.212Z,100577.37
2023-04-17T00:22:17.275Z,100581.72
2023-04-17T00:26:25.307Z,100582.11
2023-04-17T00:30:33.532Z,100583.34
2023-04-17T00:34:43.352Z,100580.70
2023-04-17T00:38:51.406Z,100581.42
2023-04-17T00:43:02.890Z,100574.87
2023-04-17T00:47:11.324Z,100573.33
2023-04-17T00:51:19.289Z,100568.56
2023-04-17T00:55:27.332Z,100573.60
2023-04-17T00:59:35.694Z,100571.84
2023-04-17T01:03:45.879Z,100575.46
2023-04-17T01:07:53.804Z,100578.08
2023-04-17T01:12:21.816Z,100577.15
2023-04-17T01:16:31.326Z,100578.38
2023-04-17T01:20:39.164Z,100575.11
2023-04-17T01:24:47.312Z,100578.16
2023-04-17T01:28:56.822Z,100584.36
2023-04-17T01:33:07.617Z,100583.82
2023-04-17T01:37:16.815Z,100583.12
2023-04-17T01:41:24.517Z,100579.98
2023-04-17T01:45:32.385Z,100586.96
2023-04-17T01:49:40.253Z,100588.82
2023-04-17T01:53:48.669Z,100588.14
2023-04-17T01:57:56.815Z,100593.80
2023-04-17T02:02:04.933Z,100597.85
2023-04-17T02:06:13.332Z,100599.95
2023-04-17T02:10:21.391Z,100599.52
2023-04-17T02:14:31.292Z,100598.67
2023-04-17T02:18:40.898Z,100604.98
2023-04-17T02:22:48.401Z,100605.98
2023-04-17T02:26:58.976Z,100611.71
2023-04-17T02:31:10.587Z,100611.55
2023-04-17T02:35:18.383Z,100609.52
2023-04-17T02:39:27.480Z,100611.59
2023-04-17T02:43:35.755Z,100609.90
2023-04-17T02:47:43.565Z,100605.14
2023-04-17T02:51:52.966Z,100609.32
2023-04-17T02:56:01.121Z,100610.64
2023-04-17T03:00:13.858Z,100603.64
2023-04-17T03:04:22.505Z,100603.89
2023-04-17T03:08:35.656Z,100605.23
2023-04-17T03:12:43.798Z,100609.62
2023-04-17T03:16:51.722Z,100613.34
2023-04-17T03:20:59.934Z,100614.41
2023-04-17T03:25:08.777Z,100618.25
2023-04-17T03:29:17.635Z,100620.55
2023-04-17T03:33:25.933Z,100624.82
2023-04-17T03:37:34.055Z,100624.89
2023-04-17T03:41:42.341Z,100628.59
2023-04-17T03:45:51.147Z,100628.68
2023-04-17T03:49:59.270Z,100635.98
2023-04-17T03:54:08.078Z,100643.14
2023-04-17T03:58:16.250Z,100645.41
2023-04-17T04:02:26.680Z,100649.83
2023-04-17T04:06:34.938Z,100654.59
2023-04-17T04:10:45.272Z,100659.70
2023-04-17T04:14:52.909Z,100661.36
2023-04-17T04:19:01.064Z,100660.80
2023-04-17T04:23:08.781Z,100659.04
2023-04-17T04:27:18.190Z,100658.48
2023-04-17T04:31:26.191Z,100661.15
2023-04-17T04:35:35.559Z,100658.51
2023-04-17T04:39:43.435Z,100662.23
2023-04-17T04:43:51.616Z,100665.42
2023-04-17T04:48:00.411Z,100665.89
2023-04-17T04:52:08.519Z,100667.34
2023-04-17T04:56:16.676Z,100667.58
2023-04-17T05:00:25.426Z,100667.56
2023-04-17T05:04:33.563Z,100675.55
2023-04-17T05:08:41.683Z,100677.39
2023-04-17T05:12:49.752Z,100680.73
2023-04-17T05:16:57.765Z,100681.52
2023-04-17T05:21:05.814Z,100685.26
2023-04-17T05:25:14.236Z,100686.70
2023-04-17T05:29:22.059Z,100688.77
2023-04-17T05:33:37.686Z,100695.11
2023-04-17T05:37:48.447Z,100690.84
2023-04-17T05:41:56.265Z,100694.33
2023-04-17T05:46:06.200Z,100694.36
2023-04-17T05:50:14.562Z,100695.09
2023-04-17T05:54:24.797Z,100691.56
2023-04-17T05:58:40.376Z,100694.48
2023-04-17T06:02:48.427Z,100698.54
2023-04-17T06:06:58.743Z,100704.04
2023-04-17T06:11:07.126Z,100709.04
2023-04-17T06:15:18.743Z,100710.90
2023-04-17T06:19:29.254Z,100710.17
2023-04-17T06:23:37.795Z,100716.11
2023-04-17T06:27:47.170Z,100716.35
2023-04-17T06:31:55.106Z,100715.05
2023-04-17T06:36:04.789Z,100719.20
2023-04-17T06:40:15.771Z,100722.80
2023-04-17T06:44:29.126Z,100722.83
2023-04-17T06:48:39.499Z,100728.30
2023-04-17T06:52:53.488Z,100733.78
2023-04-17T06:57:09.676Z,100734.80
2023-04-17T07:01:17.520Z,100741.80
2023-04-17T07:05:26.861Z,100740.04
2023-04-17T07:09:41.208Z,100749.92
2023-04-17T07:13:49.356Z,100751.13
2023-04-17T07:17:57.728Z,100753.20
2023-04-17T07:22:12.697Z,100757.98
2023-04-17T07:26:19.974Z,100760.43
2023-04-17T07:30:28.905Z,100763.96
2023-04-17T07:34:41.386Z,100768.29
2023-04-17T07:38:52.662Z,100766.10
2023-04-17T07:43:11.011Z,100769.23
2023-04-17T07:47:18.632Z,100768.69
2023-04-17T07:51:34.921Z,100772.98
2023-04-17T07:55:44.416Z,100769.38
2023-04-17T07:59:57.495Z,100765.68
2023-04-17T08:04:05.961Z,100764.58
2023-04-17T08:08:22.328Z,100764.25
2023-04-17T08:12:30.983Z,100767.30
2023-04-17T08:16:40.817Z,100767.13
2023-04-17T08:20:51.752Z,100771.96
2023-04-17T08:24:59.903Z,100774.15
2023-04-17T08:29:08.711Z,100773.02
2023-04-17T08:33:19.254Z,100774.80
2023-04-17T08:37:32.517Z,100773.08
2023-04-17T08:41:51.732Z,100772.50
2023-04-17T08:46:01.096Z,100771.08
2023-04-17T08:50:17.131Z,100772.90
2023-04-17T08:54:27.814Z,100782.07
2023-04-17T08:58:37.355Z,100782.52
2023-04-17T09:03:08.086Z,100787.98
2023-04-17T09:07:16.990Z,100785.14
2023-04-17T09:11:24.764Z,100788.83
2023-04-17T09:15:33.279Z,100792.09
2023-04-17T09:19:43.023Z,100794.59
2023-04-17T09:23:55.950Z,100796.93
2023-04-17T09:28:14.817Z,100798.41
2023-04-17T09:32:26.020Z,100800.77
2023-04-17T09:36:37.089Z,100801.27
2023-04-17T09:40:45.319Z,100791.83
2023-04-17T09:44:59.537Z,100793.45
2023-04-17T09:49:18.946Z,100790.27
2023-04-17T09:53:26.622Z,100786.59
2023-04-17T09:57:35.150Z,100784.96
2023-04-17T10:01:45.246Z,100780.16
2023-04-17T10:06:00.271Z,100784.46
2023-04-17T10:10:12.165Z,100785.64
2023-04-17T10:14:29.390Z,100784.98
2023-04-17T10:18:37.336Z,100783.28
2023-04-17T10:22:45.614Z,100779.10
2023-04-17T10:26:53.170Z,100776.52
2023-04-17T10:31:06.587Z,100775.41
2023-04-17T10:35:38.842Z,100768.02
2023-04-17T10:39:55.565Z,100758.88
2023-04-17T10:44:09.377Z,100764.56
2023-04-17T10:48:25.001Z,100761.17
2023-04-17T10:52:46.119Z,100760.69
2023-04-17T10:56:58.828Z,100760.31
2023-04-17T11:01:12.805Z,100760.89
2023-04-17T11:05:21.079Z,100761.51
2023-04-17T11:09:30.902Z,100758.67
2023-04-17T11:13:42.723Z,100759.63
2023-04-17T11:17:51.034Z,100762.02
2023-04-17T11:22:01.764Z,100762.89
2023-04-17T11:26:10.256Z,100761.90
2023-04-17T11:30:27.468Z,100766.40
2023-04-17T11:34:36.105Z,100771.71
2023-04-17T11:38:50.910Z,100773.27
2023-04-17T11:42:58.630Z,100768.61
2023-04-17T11:47:06.833Z,100774.14
2023-04-17T11:51:14.627Z,100769.52
2023-04-17T11:55:22.871Z,100765.11
2023-04-17T11:59:34.911Z,100764.88
2023-04-17T12:03:45.245Z,100765.02
2023-04-17T12:08:04.685Z,100763.05
2023-04-17T12:12:12.307Z,100760.23
2023-04-17T12:16:22.415Z,100756.08
2023-04-17T12:20:30.440Z,100764.23
2023-04-17T12:24:38.453Z,100769.36
2023-04-17T12:28:46.887Z,100765.66
2023-04-17T12:32:54.899Z,100766.52
2023-04-17T12:37:02.160Z,100764.70
2023-04-17T12:41:09.848Z,100762.29
2023-04-17T12:45:18.286Z,100764.96
2023-04-17T12:49:25.654Z,100764.67
2023-04-17T12:53:33.103Z,100758.66
2023-04-17T12:57:41.192Z,100760.80
2023-04-17T13:01:48.985Z,100763.92
2023-04-17T13:05:57.219Z,100760.16
2023-04-17T13:10:06.564Z,100760.23
2023-04-17T13:14:15.425Z,100757.48
2023-04-17T13:18:23.029Z,100755.17
2023-04-17T13:22:30.686Z,100752.46
2023-04-17T13:26:39.937Z,100752.70
2023-04-17T13:30:47.637Z,100755.34
2023-04-17T13:34:58.627Z,100750.89
2023-04-17T13:39:11.572Z,100743.36
2023-04-17T13:43:19.878Z,100744.30
2023-04-17T13:47:27.622Z,100736.95
2023-04-17T13:51:36.138Z,100729.83
2023-04-17T13:55:43.881Z,100730.65
2023-04-17T13:59:52.671Z,100734.42
2023-04-17T14:04:00.914Z,100734.59
2023-04-17T14:08:09.418Z,100731.77
2023-04-17T14:12:20.905Z,100731.51
2023-04-17T14:16:29.053Z,100728.91
2023-04-17T14:20:36.684Z,100725.77
2023-04-17T14:24:45.767Z,100724.14
2023-04-17T14:28:53.627Z,100724.88
2023-04-17T14:33:01.275Z,100717.31
2023-04-17T14:37:09.102Z,100722.88
2023-04-17T14:41:16.704Z,100726.46
2023-04-17T14:45:24.566Z,100726.78
2023-04-17T14:49:34.913Z,100720.89
2023-04-17T14:53:42.896Z,100722.15
2023-04-17T14:57:50.310Z,100725.56
2023-04-17T15:01:58.507Z,100724.97
2023-04-17T15:06:09.785Z,100727.87
2023-04-17T15:10:18.748Z,100726.58
2023-04-17T15:14:29.450Z,100724.68
2023-04-17T15:18:37.152Z,100723.30
2023-04-17T15:22:52.662Z,100725.15
2023-04-17T15:27:00.959Z,100724.45
2023-04-17T15:31:08.950Z,100724.98
2023-04-17T15:35:16.524Z,100727.41
2023-04-17T15:39:24.516Z,100726.55
2023-04-17T15:43:32.104Z,100729.09
2023-04-17T15:47:40.357Z,100729.63
2023-04-17T15:51:49.010Z,100729.20
2023-04-17T15:55:57.297Z,100727.34
2023-04-17T16:00:06.488Z,100726.45
2023-04-17T16:04:14.762Z,100733.41
2023-04-17T16:08:22.396Z,100732.94
2023-04-17T16:12:31.352Z,100735.05
2023-04-17T16:16:39.834Z,100733.52
2023-04-17T16:20:47.463Z,100728.63
2023-04-17T16:24:55.617Z,100725.96
2023-04-17T16:29:03.403Z,100728.08
2023-04-17T16:33:11.265Z,100732.21
2023-04-17T16:37:18.870Z,100734.63
2023-04-17T16:41:26.528Z,100734.73
2023-04-17T16:45:33.730Z,100737.71
2023-04-17T16:49:42.973Z,100740.59
2023-04-17T16:53:52.242Z,100744.73
2023-04-17T16:58:00.857Z,100752.29
2023-04-17T17:02:08.712Z,100756.73
2023-04-17T17:06:17.153Z,100757.37
2023-04-17T17:10:25.122Z,100759.03
2023-04-17T17:14:32.785Z,100771.07
2023-04-17T17:18:41.297Z,100769.56
2023-04-17T17:22:52.232Z,100773.77
2023-04-17T17:27:00.073Z,100773.41
2023-04-17T17:31:09.398Z,100785.60
2023-04-17T17:35:18.258Z,100789.27
2023-04-17T17:39:26.240Z,100794.76
2023-04-17T17:43:33.866Z,100797.83
2023-04-17T17:47:41.965Z,100803.16
2023-04-17T17:51:49.836Z,100809.80
2023-04-17T17:55:58.016Z,100810.21
2023-04-17T18:00:06.130Z,100817.03
2023-04-17T18:04:15.843Z,100823.77
2023-04-17T18:08:24.405Z,100827.06
2023-04-17T18:12:32.440Z,100823.73
2023-04-17T18:16:42.942Z,100827.54
2023-04-17T18:20:51.473Z,100832.57
2023-04-17T18:24:59.747Z,100832.41
2023-04-17T18:29:07.940Z,100835.02
2023-04-17T18:33:18.650Z,100834.67
2023-04-17T18:37:27.296Z,100833.82
2023-04-17T18:41:35.889Z,100837.02
2023-04-17T18:45:44.026Z,100843.45
2023-04-17T18:49:54.970Z,100844.40
2023-04-17T18:54:03.797Z,100849.65
2023-04-17T18:58:14.208Z,100858.02
2023-04-17T19:02:23.002Z,100859.80
2023-04-17T19:06:31.578Z,100864.02
2023-04-17T19:10:40.242Z,100866.17
2023-04-17T19:14:51.843Z,100869.10
2023-04-17T19:18:59.429Z,100868.51
2023-04-17T19:23:12.751Z,100867.60
2023-04-17T19:27:21.251Z,100865.64
2023-04-17T19:31:28.989Z,100868.36
2023-04-17T19:35:37.000Z,100872.80
2023-04-17T19:39:45.294Z,100871.66
2023-04-17T19:43:54.406Z,100870.04
2023-04-17T19:48:03.109Z,100871.41
2023-04-17T19:52:15.038Z,100871.98
2023-04-17T19:56:24.465Z,100872.79
2023-04-17T20:00:32.384Z,100871.39
2023-04-17T20:04:40.058Z,100873.80
2023-04-17T20:08:47.701Z,100875.47
2023-04-17T20:12:57.234Z,100875.46
2023-04-17T20:17:05.228Z,100874.54
2023-04-17T20:21:13.335Z,100879.61
2023-04-17T20:25:20.940Z,100878.09
2023-04-17T20:29:29.021Z,100881.08
2023-04-17T20:33:36.615Z,100881.63
2023-04-17T20:37:46.197Z,100883.20
2023-04-17T20:41:54.108Z,100882.58
2023-04-17T20:46:01.661Z,100882.59
2023-04-17T20:50:11.825Z,100887.88
2023-04-17T20:54:23.345Z,100886.90
2023-04-17T20:58:32.398Z,100889.58
2023-04-17T21:02:41.272Z,100892.89
2023-04-17T21:06:50.585Z,100895.52
2023-04-17T21:10:58.072Z,100896.83
2023-04-17T21:15:05.920Z,100900.55
2023-04-17T21:19:13.563Z,100903.69
2023-04-17T21:23:21.290Z,100904.14
2023-04-17T21:27:29.064Z,100907.09
2023-04-17T21:31:37.351Z,100906.29
2023-04-17T21:35:44.810Z,100904.34
2023-04-17T21:39:53.025Z,100903.52
2023-04-17T21:44:02.723Z,100900.15
2023-04-17T21:48:10.465Z,100899.73
2023-04-17T21:52:18.629Z,100899.73
2023-04-17T21:56:26.857Z,100896.73
2023-04-17T22:00:34.582Z,100903.65
2023-04-17T22:04:43.071Z,100903.38
2023-04-17T22:08:52.317Z,100908.23
2023-04-17T22:12:59.835Z,100909.80
2023-04-17T22:17:07.975Z,100916.05
2023-04-17T22:21:15.746Z,100915.50
2023-04-17T22:25:23.270Z,100917.45
2023-04-17T22:29:31.118Z,100916.95
2023-04-17T22:33:38.867Z,100920.06
2023-04-17T22:37:46.785Z,100921.00
2023-04-17T22:41:54.405Z,100916.05
2023-04-17T22:46:02.432Z,100919.69
2023-04-17T22:50:11.815Z,100918.20
2023-04-17T22:54:23.093Z,100921.20
2023-04-17T22:58:34.052Z,100922.94
2023-04-17T23:02:42.146Z,100918.60
2023-04-17T23:06:49.820Z,100919.60
2023-04-17T23:11:05.311Z,100918.94
2023-04-17T23:15:14.134Z,100917.08
2023-04-17T23:19:22.566Z,100916.67
2023-04-17T23:23:30.861Z,100912.61
2023-04-17T23:27:38.160Z,100909.87
2023-04-17T23:31:46.746Z,100908.24
2023-04-17T23:35:54.533Z,100910.23
2023-04-17T23:40:02.327Z,100903.74
2023-04-17T23:44:10.495Z,100903.44
2023-04-17T23:48:17.893Z,100903.42
2023-04-17T23:52:26.269Z,100903.09
2023-04-17T23:56:34.188Z,100901.71
